createdAt,value
2018-01-15T00:00:04.438Z,0
2018-01-15T00:05:02.827Z,1
2018-01-15T00:10:02.830Z,2
2018-01-15T00:15:03.312Z,2
2018-01-15T00:20:02.779Z,0
2018-01-15T00:25:03.374Z,1
2018-01-15T00:30:03.168Z,0
2018-01-15T00:35:02.651Z,2
2018-01-15T00:40:03.143Z,0
2018-01-15T00:45:02.762Z,0
2018-01-15T00:50:03.311Z,1
2018-01-15T00:55:02.933Z,2
2018-01-15T01:00:03.515Z,1
2018-01-15T01:05:03.578Z,1
2018-01-15T01:10:03.188Z,2
2018-01-15T01:15:02.783Z,3
2018-01-15T01:20:03.281Z,2
2018-01-15T01:25:02.741Z,2
2018-01-15T01:30:03.175Z,2
2018-01-15T01:35:02.722Z,1
2018-01-15T01:40:03.195Z,3
2018-01-15T01:45:02.898Z,3
2018-01-15T01:50:03.421Z,2
2018-01-15T01:55:02.914Z,3
2018-01-15T02:00:03.520Z,3
2018-01-15T02:05:02.971Z,3
2018-01-15T02:10:02.701Z,3
2018-01-15T02:15:03.182Z,0
2018-01-15T02:20:02.949Z,0
2018-01-15T02:25:03.564Z,0
2018-01-15T02:30:03.211Z,0
2018-01-15T02:35:02.650Z,0
2018-01-15T02:40:03.313Z,2
2018-01-15T02:45:02.872Z,3
2018-01-15T02:50:03.468Z,2
2018-01-15T02:55:03.055Z,1
2018-01-15T03:00:03.556Z,1
2018-01-15T03:05:02.990Z,0
2018-01-15T03:10:03.564Z,2
2018-01-15T03:15:03.033Z,0
2018-01-15T03:20:02.655Z,0
2018-01-15T03:25:03.152Z,0
2018-01-15T03:30:03.574Z,1
2018-01-15T03:35:03.144Z,1
2018-01-15T03:40:02.690Z,2
2018-01-15T03:45:03.213Z,2
2018-01-15T03:50:02.785Z,1
2018-01-15T03:55:03.197Z,2
2018-01-15T04:00:02.951Z,2
2018-01-15T04:05:03.377Z,1
2018-01-15T04:10:03.100Z,2
2018-01-15T04:15:03.616Z,2
2018-01-15T04:20:03.057Z,0
2018-01-15T04:25:02.688Z,1
2018-01-15T04:30:03.287Z,1
2018-01-15T04:35:02.727Z,0
2018-01-15T04:40:03.207Z,0
2018-01-15T04:45:02.626Z,2
2018-01-15T04:50:03.139Z,2
2018-01-15T04:55:02.615Z,3
2018-01-15T05:00:03.212Z,0
2018-01-15T05:05:02.635Z,3
2018-01-15T05:10:03.271Z,2
2018-01-15T05:15:02.845Z,3
2018-01-15T05:20:03.218Z,2
2018-01-15T05:25:02.680Z,4
2018-01-15T05:30:03.109Z,3
2018-01-15T05:35:02.673Z,2
2018-01-15T05:40:03.241Z,4
2018-01-15T05:45:02.782Z,3
2018-01-15T05:50:03.219Z,2
2018-01-15T05:55:02.675Z,3
2018-01-15T06:00:03.120Z,7
2018-01-15T06:05:02.734Z,5
2018-01-15T06:10:03.320Z,8
2018-01-15T06:15:02.709Z,6
2018-01-15T06:20:03.431Z,8
2018-01-15T06:25:03.039Z,4
2018-01-15T06:30:03.405Z,5
2018-01-15T06:35:02.878Z,8
2018-01-15T06:40:03.325Z,3
2018-01-15T06:45:02.875Z,4
2018-01-15T06:50:03.553Z,2
2018-01-15T06:55:03.122Z,3
2018-01-15T07:00:02.775Z,2
2018-01-15T07:05:03.274Z,2
2018-01-15T07:10:02.748Z,3
2018-01-15T07:15:03.151Z,3
2018-01-15T07:20:02.686Z,3
2018-01-15T07:25:03.308Z,7
2018-01-15T07:30:02.930Z,5
2018-01-15T07:35:03.381Z,6
2018-01-15T07:40:03.099Z,8
2018-01-15T07:45:03.596Z,3
2018-01-15T07:50:03.309Z,5
2018-01-15T07:55:02.775Z,8
2018-01-15T08:00:03.201Z,4
2018-01-15T08:05:02.864Z,4
2018-01-15T08:10:03.515Z,6
2018-01-15T08:15:03.220Z,4
2018-01-15T08:20:02.829Z,4
2018-01-15T08:25:03.453Z,10
2018-01-15T08:30:03.136Z,4
2018-01-15T08:35:02.701Z,6
2018-01-15T08:40:03.410Z,5
2018-01-15T08:45:02.896Z,6
2018-01-15T08:50:03.567Z,4
2018-01-15T08:55:03.148Z,4
2018-01-15T09:00:02.682Z,4
2018-01-15T09:05:03.211Z,7
2018-01-15T09:10:02.794Z,6
2018-01-15T09:15:03.421Z,5
2018-01-15T09:20:03.113Z,4
2018-01-15T09:25:02.669Z,5
2018-01-15T09:30:03.149Z,3
2018-01-15T09:35:02.752Z,4
2018-01-15T09:40:03.360Z,9
2018-01-15T09:45:02.814Z,5
2018-01-15T09:50:03.410Z,6
2018-01-15T09:55:02.996Z,5
2018-01-15T10:00:03.428Z,6
2018-01-15T10:05:03.006Z,5
2018-01-15T10:10:02.763Z,7
2018-01-15T10:15:03.230Z,4
2018-01-15T10:20:02.759Z,6
2018-01-15T10:25:03.208Z,6
2018-01-15T10:30:02.639Z,3
2018-01-15T10:35:03.368Z,8
2018-01-15T10:40:02.863Z,4
2018-01-15T10:45:03.501Z,5
2018-01-15T10:50:03.125Z,5
2018-01-15T10:55:03.556Z,2
2018-01-15T11:00:03.007Z,8
2018-01-15T11:05:02.630Z,6
2018-01-15T11:10:03.259Z,6
2018-01-15T11:15:02.748Z,7
2018-01-15T11:20:03.516Z,7
2018-01-15T11:25:03.176Z,4
2018-01-15T11:30:02.772Z,7
2018-01-15T11:35:03.189Z,4
2018-01-15T11:40:02.861Z,6
2018-01-15T11:45:03.321Z,6
2018-01-15T11:50:03.000Z,6
2018-01-15T11:55:03.506Z,7
2018-01-15T12:00:02.923Z,4
2018-01-15T12:05:02.720Z,5
2018-01-15T12:10:03.383Z,6
2018-01-15T12:15:03.076Z,6
2018-01-15T12:20:03.645Z,7
2018-01-15T12:25:03.089Z,5
2018-01-15T12:30:03.551Z,5
2018-01-15T12:35:03.109Z,9
2018-01-15T12:40:02.696Z,5
2018-01-15T12:45:03.361Z,7
2018-01-15T12:50:02.810Z,9
2018-01-15T12:55:03.369Z,13
2018-01-15T13:00:02.822Z,9
2018-01-15T13:05:03.303Z,5
2018-01-15T13:10:02.898Z,8
2018-01-15T13:15:03.479Z,13
2018-01-15T13:20:03.205Z,10
2018-01-15T13:25:02.797Z,11
2018-01-15T13:30:03.536Z,13
2018-01-15T13:35:03.304Z,8
2018-01-15T13:40:03.206Z,12
2018-01-15T13:45:02.831Z,9
2018-01-15T13:50:03.297Z,7
2018-01-15T13:55:02.898Z,8
2018-01-15T14:05:03.088Z,7
2018-01-15T14:10:02.782Z,7
2018-01-15T14:15:03.289Z,7
2018-01-15T14:20:03.043Z,7
2018-01-15T14:25:02.626Z,7
2018-01-15T14:30:03.093Z,10
2018-01-15T14:35:02.833Z,9
2018-01-15T14:40:03.365Z,9
2018-01-15T14:45:03.014Z,7
2018-01-15T14:50:03.540Z,7
2018-01-15T14:55:03.033Z,6
2018-01-15T15:00:03.534Z,6
2018-01-15T15:05:03.145Z,11
2018-01-15T15:10:02.839Z,7
2018-01-15T15:15:03.632Z,5
2018-01-15T15:20:03.277Z,10
2018-01-15T15:25:02.875Z,9
2018-01-15T15:30:03.392Z,7
2018-01-15T15:35:03.044Z,5
2018-01-15T15:40:03.614Z,7
2018-01-15T15:45:03.167Z,7
2018-01-15T15:50:02.753Z,9
2018-01-15T15:55:03.394Z,4
2018-01-15T16:00:02.935Z,9
2018-01-15T16:05:03.502Z,9
2018-01-15T16:10:03.256Z,7
2018-01-15T16:15:02.697Z,5
2018-01-15T16:20:03.407Z,6
2018-01-15T16:25:02.861Z,9
2018-01-15T16:30:03.482Z,7
2018-01-15T16:35:03.043Z,8
2018-01-15T16:40:02.609Z,7
2018-01-15T16:45:03.310Z,12
2018-01-15T16:50:02.915Z,12
2018-01-15T16:55:03.481Z,6
2018-01-15T17:00:02.950Z,13
2018-01-15T17:05:03.508Z,7
2018-01-15T17:10:03.027Z,9
2018-01-15T17:15:03.592Z,8
2018-01-15T17:20:03.289Z,10
2018-01-15T17:25:02.873Z,7
2018-01-15T17:30:03.433Z,9
2018-01-15T17:35:03.044Z,11
2018-01-15T17:40:02.710Z,8
2018-01-15T17:45:03.345Z,6
2018-01-15T17:50:03.057Z,7
2018-01-15T17:55:03.559Z,5
2018-01-15T18:00:03.236Z,9
2018-01-15T18:05:03.034Z,12
2018-01-15T18:10:02.703Z,10
2018-01-15T18:15:03.146Z,12
2018-01-15T18:20:03.092Z,12
2018-01-15T18:25:03.512Z,9
2018-01-15T18:30:03.000Z,7
2018-01-15T18:35:03.491Z,10
2018-01-15T18:40:03.174Z,9
2018-01-15T18:45:02.623Z,7
2018-01-15T18:50:03.255Z,7
2018-01-15T18:55:02.803Z,7
2018-01-15T19:00:03.254Z,12
2018-01-15T19:05:02.777Z,9
2018-01-15T19:10:03.404Z,7
2018-01-15T19:15:03.002Z,11
2018-01-15T19:20:02.667Z,14
2018-01-15T19:25:03.333Z,11
2018-01-15T19:30:02.897Z,9
2018-01-15T19:35:02.650Z,10
2018-01-15T19:40:03.328Z,9
2018-01-15T19:45:02.765Z,10
2018-01-15T19:50:03.249Z,10
2018-01-15T19:55:02.954Z,13
2018-01-15T20:00:03.585Z,10
2018-01-15T20:05:03.261Z,10
2018-01-15T20:10:02.804Z,12
2018-01-15T20:15:03.343Z,11
2018-01-15T20:20:02.919Z,12
2018-01-15T20:25:03.564Z,8
2018-01-15T20:30:03.217Z,10
2018-01-15T20:35:02.923Z,5
2018-01-15T20:40:03.438Z,9
2018-01-15T20:45:02.921Z,10
2018-01-15T20:50:03.431Z,12
2018-01-15T20:55:03.095Z,9
2018-01-15T21:00:02.702Z,8
2018-01-15T21:05:03.288Z,7
2018-01-15T21:10:02.919Z,10
2018-01-15T21:15:03.372Z,7
2018-01-15T21:20:02.952Z,11
2018-01-15T21:25:03.512Z,6
2018-01-15T21:30:03.112Z,7
2018-01-15T21:35:02.612Z,9
2018-01-15T21:40:03.178Z,10
2018-01-15T21:45:02.984Z,6
2018-01-15T21:50:03.487Z,7
2018-01-15T21:55:03.071Z,10
2018-01-15T22:00:03.610Z,5
2018-01-15T22:05:03.290Z,5
2018-01-15T22:10:02.981Z,7
2018-01-15T22:15:03.467Z,5
2018-01-15T22:20:03.048Z,7
2018-01-15T22:25:02.667Z,6
2018-01-15T22:30:03.399Z,4
2018-01-15T22:35:02.936Z,9
2018-01-15T22:40:02.655Z,5
2018-01-15T22:45:03.274Z,5
2018-01-15T22:50:02.766Z,4
2018-01-15T22:55:03.158Z,5
2018-01-15T23:00:02.734Z,7
2018-01-15T23:05:03.224Z,8
2018-01-15T23:10:03.079Z,5
2018-01-15T23:15:02.775Z,5
2018-01-15T23:20:03.553Z,7
2018-01-15T23:25:03.129Z,6
2018-01-15T23:30:03.580Z,6
2018-01-15T23:35:03.149Z,9
2018-01-15T23:40:02.781Z,6
2018-01-15T23:45:03.219Z,3
2018-01-15T23:50:02.702Z,4
2018-01-15T23:55:03.344Z,7
